Beale Air Force Base

Airport
ICAO code: 
KBAB
Summary
ICAO Region: 
NAM
Territory: 
Location: 
Marysville, California,
Coordinates: 
Aerial View: 
39° 8' 47.372" N, 121° 26' 5.155" W
Metar
Observation
KBAB 021258Z AUTO 35007KT 10SM CLR 06/06 A3010 RMK AO2 SLP196 T00640064 $
Station
Marysville, Beale Air Force Base
Date/Time
2021-12-02 12:58:00
Wind direction
350°
Wind speed
07 kts
Lowest cloud amount
n/a
Temperature
6.4°C
Dew point
6.4°C
Humidity
100%
Weather condition
n/a

Description

Beale Air Force Base (AFB) is a United States Air Force base located approximately 20 km east of Yuba City, California.

Climatology

Dry-summer subtropical ”Mediterranean" climate (Köppen climate classification Csb) - characterized by warm, dry summers and mild winters.

Runways

Designator Length Width Surface Rops
15/33 3658 91 CON Yes/Yes
Airport map: 
Aerial View: 

SKYbrary Partners:

Safety knowledge contributed by: